sensor_id;sensor_type;location;lat;lon;timestamp;temperature;humidity
52016;DHT22;38032;53.326;6.472;2023-09-19T00:02:06;16.00;99.90
52016;DHT22;38032;53.326;6.472;2023-09-19T00:04:33;16.00;99.90
52016;DHT22;38032;53.326;6.472;2023-09-19T00:06:59;16.00;99.90
52016;DHT22;38032;53.326;6.472;2023-09-19T00:09:25;15.90;99.90
52016;DHT22;38032;53.326;6.472;2023-09-19T00:11:53;15.90;99.90
52016;DHT22;38032;53.326;6.472;2023-09-19T00:14:19;15.90;99.90
52016;DHT22;38032;53.326;6.472;2023-09-19T00:16:46;15.80;99.90
52016;DHT22;38032;53.326;6.472;2023-09-19T00:19:16;15.80;99.90
52016;DHT22;38032;53.326;6.472;2023-09-19T00:21:42;15.80;99.90
52016;DHT22;38032;53.326;6.472;2023-09-19T00:24:09;15.80;99.90
52016;DHT22;38032;53.326;6.472;2023-09-19T00:26:35;15.80;99.90
52016;DHT22;38032;53.326;6.472;2023-09-19T00:29:01;15.70;99.90
52016;DHT22;38032;53.326;6.472;2023-09-19T00:31:34;15.70;99.90
52016;DHT22;38032;53.326;6.472;2023-09-19T00:34:03;15.70;99.90
52016;DHT22;38032;53.326;6.472;2023-09-19T00:36:30;15.70;99.90
52016;DHT22;38032;53.326;6.472;2023-09-19T00:38:55;15.60;99.90
52016;DHT22;38032;53.326;6.472;2023-09-19T00:41:21;15.60;99.90
52016;DHT22;38032;53.326;6.472;2023-09-19T00:43:47;15.60;99.90
52016;DHT22;38032;53.326;6.472;2023-09-19T00:46:17;15.60;99.90
52016;DHT22;38032;53.326;6.472;2023-09-19T00:48:43;15.50;99.90
52016;DHT22;38032;53.326;6.472;2023-09-19T00:51:09;15.60;99.90
52016;DHT22;38032;53.326;6.472;2023-09-19T00:53:36;15.60;99.90
52016;DHT22;38032;53.326;6.472;2023-09-19T00:56:03;15.60;99.90
52016;DHT22;38032;53.326;6.472;2023-09-19T00:58:34;15.60;99.90
52016;DHT22;38032;53.326;6.472;2023-09-19T01:01:01;15.60;99.90
52016;DHT22;38032;53.326;6.472;2023-09-19T01:03:28;15.60;99.90
52016;DHT22;38032;53.326;6.472;2023-09-19T01:05:54;15.60;99.90
52016;DHT22;38032;53.326;6.472;2023-09-19T01:08:20;15.60;99.90
52016;DHT22;38032;53.326;6.472;2023-09-19T01:10:58;15.60;99.90
52016;DHT22;38032;53.326;6.472;2023-09-19T01:13:31;15.60;99.90
52016;DHT22;38032;53.326;6.472;2023-09-19T01:21:09;15.50;99.90
52016;DHT22;38032;53.326;6.472;2023-09-19T01:24:07;15.50;99.90
52016;DHT22;38032;53.326;6.472;2023-09-19T01:32:02;15.50;99.90
52016;DHT22;38032;53.326;6.472;2023-09-19T01:34:47;15.50;99.90
52016;DHT22;38032;53.326;6.472;2023-09-19T01:37:16;15.40;99.90
52016;DHT22;38032;53.326;6.472;2023-09-19T01:39:46;15.40;99.90
52016;DHT22;38032;53.326;6.472;2023-09-19T01:42:24;15.30;99.90
52016;DHT22;38032;53.326;6.472;2023-09-19T01:50:13;15.20;99.90
52016;DHT22;38032;53.326;6.472;2023-09-19T01:52:51;15.20;99.90
52016;DHT22;38032;53.326;6.472;2023-09-19T01:55:20;15.10;99.90
52016;DHT22;38032;53.326;6.472;2023-09-19T01:57:54;15.10;99.90
52016;DHT22;38032;53.326;6.472;2023-09-19T02:00:26;15.10;99.90
52016;DHT22;38032;53.326;6.472;2023-09-19T02:02:53;15.10;99.90
52016;DHT22;38032;53.326;6.472;2023-09-19T02:05:23;15.00;99.90
52016;DHT22;38032;53.326;6.472;2023-09-19T02:07:51;15.00;99.90
52016;DHT22;38032;53.326;6.472;2023-09-19T02:10:18;14.90;99.90
52016;DHT22;38032;53.326;6.472;2023-09-19T02:12:44;15.00;99.90
52016;DHT22;38032;53.326;6.472;2023-09-19T02:15:11;14.90;99.90
52016;DHT22;38032;53.326;6.472;2023-09-19T02:17:36;14.90;99.90
52016;DHT22;38032;53.326;6.472;2023-09-19T02:20:03;14.90;99.90
52016;DHT22;38032;53.326;6.472;2023-09-19T02:22:36;14.80;99.90
52016;DHT22;38032;53.326;6.472;2023-09-19T02:25:04;14.90;99.90
52016;DHT22;38032;53.326;6.472;2023-09-19T02:27:30;14.80;99.90
52016;DHT22;38032;53.326;6.472;2023-09-19T02:29:56;14.80;99.90
52016;DHT22;38032;53.326;6.472;2023-09-19T02:32:23;14.80;99.90
52016;DHT22;38032;53.326;6.472;2023-09-19T02:34:49;14.70;99.90
52016;DHT22;38032;53.326;6.472;2023-09-19T02:37:17;14.70;99.90
52016;DHT22;38032;53.326;6.472;2023-09-19T02:39:45;14.70;99.90
52016;DHT22;38032;53.326;6.472;2023-09-19T02:42:11;14.60;99.90
52016;DHT22;38032;53.326;6.472;2023-09-19T02:44:36;14.60;99.90
52016;DHT22;38032;53.326;6.472;2023-09-19T02:47:04;14.60;99.90
52016;DHT22;38032;53.326;6.472;2023-09-19T02:49:29;14.60;99.90
52016;DHT22;38032;53.326;6.472;2023-09-19T02:51:55;14.60;99.90
52016;DHT22;38032;53.326;6.472;2023-09-19T02:54:24;14.50;99.90
52016;DHT22;38032;53.326;6.472;2023-09-19T02:56:50;14.50;99.90
52016;DHT22;38032;53.326;6.472;2023-09-19T02:59:16;14.50;99.90
52016;DHT22;38032;53.326;6.472;2023-09-19T03:01:43;14.50;99.90
52016;DHT22;38032;53.326;6.472;2023-09-19T03:04:09;14.50;99.90
52016;DHT22;38032;53.326;6.472;2023-09-19T03:06:37;14.50;99.90
52016;DHT22;38032;53.326;6.472;2023-09-19T03:09:04;14.50;99.90
52016;DHT22;38032;53.326;6.472;2023-09-19T03:11:38;14.50;99.90
52016;DHT22;38032;53.326;6.472;2023-09-19T03:14:05;14.60;99.90
52016;DHT22;38032;53.326;6.472;2023-09-19T03:16:31;14.60;99.90
52016;DHT22;38032;53.326;6.472;2023-09-19T03:18:58;14.60;99.90
52016;DHT22;38032;53.326;6.472;2023-09-19T03:21:25;14.60;99.90
52016;DHT22;38032;53.326;6.472;2023-09-19T03:23:51;14.60;99.90
52016;DHT22;38032;53.326;6.472;2023-09-19T03:26:17;14.60;99.90
52016;DHT22;38032;53.326;6.472;2023-09-19T03:28:43;14.60;99.90
52016;DHT22;38032;53.326;6.472;2023-09-19T03:31:09;14.60;99.90
52016;DHT22;38032;53.326;6.472;2023-09-19T03:33:36;14.60;99.90
52016;DHT22;38032;53.326;6.472;2023-09-19T03:36:03;14.60;99.90
52016;DHT22;38032;53.326;6.472;2023-09-19T03:38:31;14.60;99.90
52016;DHT22;38032;53.326;6.472;2023-09-19T03:40:57;14.60;99.90
52016;DHT22;38032;53.326;6.472;2023-09-19T03:43:24;14.60;99.90
52016;DHT22;38032;53.326;6.472;2023-09-19T03:45:50;14.50;99.90
52016;DHT22;38032;53.326;6.472;2023-09-19T03:48:16;14.50;99.90
52016;DHT22;38032;53.326;6.472;2023-09-19T03:50:42;14.50;99.90
52016;DHT22;38032;53.326;6.472;2023-09-19T03:53:09;14.50;99.90
52016;DHT22;38032;53.326;6.472;2023-09-19T03:55:35;14.40;99.90
52016;DHT22;38032;53.326;6.472;2023-09-19T03:58:02;14.40;99.90
52016;DHT22;38032;53.326;6.472;2023-09-19T04:00:29;14.40;99.90
52016;DHT22;38032;53.326;6.472;2023-09-19T04:02:55;14.30;99.90
52016;DHT22;38032;53.326;6.472;2023-09-19T04:05:23;14.30;99.90
52016;DHT22;38032;53.326;6.472;2023-09-19T04:07:49;14.30;99.90
52016;DHT22;38032;53.326;6.472;2023-09-19T04:10:16;14.30;99.90
52016;DHT22;38032;53.326;6.472;2023-09-19T04:12:51;14.20;99.90
52016;DHT22;38032;53.326;6.472;2023-09-19T04:15:17;14.20;99.90
52016;DHT22;38032;53.326;6.472;2023-09-19T04:17:43;14.20;99.90
52016;DHT22;38032;53.326;6.472;2023-09-19T04:20:09;14.20;99.90
52016;DHT22;38032;53.326;6.472;2023-09-19T04:22:38;14.20;99.90
52016;DHT22;38032;53.326;6.472;2023-09-19T04:25:05;14.20;99.90
52016;DHT22;38032;53.326;6.472;2023-09-19T04:27:33;14.20;99.90
52016;DHT22;38032;53.326;6.472;2023-09-19T04:29:59;14.20;99.90
52016;DHT22;38032;53.326;6.472;2023-09-19T04:32:31;14.20;99.90
52016;DHT22;38032;53.326;6.472;2023-09-19T04:34:57;14.20;99.90
52016;DHT22;38032;53.326;6.472;2023-09-19T04:37:26;14.20;99.90
52016;DHT22;38032;53.326;6.472;2023-09-19T04:39:52;14.20;99.90
52016;DHT22;38032;53.326;6.472;2023-09-19T04:42:18;14.20;99.90
52016;DHT22;38032;53.326;6.472;2023-09-19T04:44:44;14.20;99.90
52016;DHT22;38032;53.326;6.472;2023-09-19T04:47:10;14.20;99.90
52016;DHT22;38032;53.326;6.472;2023-09-19T04:49:37;14.10;99.90
52016;DHT22;38032;53.326;6.472;2023-09-19T04:52:05;14.20;99.90
52016;DHT22;38032;53.326;6.472;2023-09-19T04:54:32;14.20;99.90
52016;DHT22;38032;53.326;6.472;2023-09-19T04:56:59;14.20;99.90
52016;DHT22;38032;53.326;6.472;2023-09-19T04:59:26;14.20;99.90
52016;DHT22;38032;53.326;6.472;2023-09-19T05:01:53;14.20;99.90
52016;DHT22;38032;53.326;6.472;2023-09-19T05:04:19;14.10;99.90
52016;DHT22;38032;53.326;6.472;2023-09-19T05:06:45;14.10;99.90
52016;DHT22;38032;53.326;6.472;2023-09-19T05:09:11;14.20;99.90
52016;DHT22;38032;53.326;6.472;2023-09-19T05:11:37;14.20;99.90
52016;DHT22;38032;53.326;6.472;2023-09-19T05:14:04;14.10;99.90
52016;DHT22;38032;53.326;6.472;2023-09-19T05:16:30;14.20;99.90
52016;DHT22;38032;53.326;6.472;2023-09-19T05:18:58;14.20;99.90
52016;DHT22;38032;53.326;6.472;2023-09-19T05:21:26;14.20;99.90
52016;DHT22;38032;53.326;6.472;2023-09-19T05:23:54;14.20;99.90
52016;DHT22;38032;53.326;6.472;2023-09-19T05:26:21;14.20;99.90
52016;DHT22;38032;53.326;6.472;2023-09-19T05:28:47;14.20;99.90
52016;DHT22;38032;53.326;6.472;2023-09-19T05:31:14;14.20;99.90
52016;DHT22;38032;53.326;6.472;2023-09-19T05:33:41;14.20;99.90
52016;DHT22;38032;53.326;6.472;2023-09-19T05:36:08;14.30;99.90
52016;DHT22;38032;53.326;6.472;2023-09-19T05:38:36;14.30;99.90
52016;DHT22;38032;53.326;6.472;2023-09-19T05:41:02;14.30;99.90
52016;DHT22;38032;53.326;6.472;2023-09-19T05:43:28;14.30;99.90
52016;DHT22;38032;53.326;6.472;2023-09-19T05:45:54;14.30;99.90
52016;DHT22;38032;53.326;6.472;2023-09-19T05:48:22;14.30;99.90
52016;DHT22;38032;53.326;6.472;2023-09-19T05:50:48;14.30;99.90
52016;DHT22;38032;53.326;6.472;2023-09-19T05:53:15;14.40;99.90
52016;DHT22;38032;53.326;6.472;2023-09-19T05:55:42;14.40;99.90
52016;DHT22;38032;53.326;6.472;2023-09-19T05:58:08;14.40;99.90
52016;DHT22;38032;53.326;6.472;2023-09-19T06:00:35;14.40;99.90
52016;DHT22;38032;53.326;6.472;2023-09-19T06:03:02;14.40;99.90
52016;DHT22;38032;53.326;6.472;2023-09-19T06:05:28;14.50;99.90
52016;DHT22;38032;53.326;6.472;2023-09-19T06:07:56;14.50;99.90
52016;DHT22;38032;53.326;6.472;2023-09-19T06:10:26;14.50;99.90
52016;DHT22;38032;53.326;6.472;2023-09-19T06:12:54;14.60;99.90
52016;DHT22;38032;53.326;6.472;2023-09-19T06:15:21;14.60;99.90
52016;DHT22;38032;53.326;6.472;2023-09-19T06:17:53;14.60;99.90
52016;DHT22;38032;53.326;6.472;2023-09-19T06:20:21;14.70;99.90
52016;DHT22;38032;53.326;6.472;2023-09-19T06:22:49;14.70;99.90
52016;DHT22;38032;53.326;6.472;2023-09-19T06:25:16;14.70;99.90
52016;DHT22;38032;53.326;6.472;2023-09-19T06:27:46;14.80;99.90
52016;DHT22;38032;53.326;6.472;2023-09-19T06:30:13;14.80;99.90
52016;DHT22;38032;53.326;6.472;2023-09-19T06:32:41;14.80;99.90
52016;DHT22;38032;53.326;6.472;2023-09-19T06:35:15;14.80;99.90
52016;DHT22;38032;53.326;6.472;2023-09-19T06:37:42;14.90;99.90
52016;DHT22;38032;53.326;6.472;2023-09-19T06:40:08;14.90;99.90
52016;DHT22;38032;53.326;6.472;2023-09-19T06:42:41;14.90;99.90
52016;DHT22;38032;53.326;6.472;2023-09-19T06:45:08;14.90;99.90
52016;DHT22;38032;53.326;6.472;2023-09-19T06:47:37;15.00;99.90
52016;DHT22;38032;53.326;6.472;2023-09-19T06:50:03;15.00;99.90
52016;DHT22;38032;53.326;6.472;2023-09-19T06:52:30;15.00;99.90
52016;DHT22;38032;53.326;6.472;2023-09-19T06:54:57;15.10;99.90
52016;DHT22;38032;53.326;6.472;2023-09-19T06:57:23;15.10;99.90
52016;DHT22;38032;53.326;6.472;2023-09-19T06:59:50;15.20;99.90
52016;DHT22;38032;53.326;6.472;2023-09-19T07:02:16;15.20;99.90
52016;DHT22;38032;53.326;6.472;2023-09-19T07:04:42;15.30;99.90
52016;DHT22;38032;53.326;6.472;2023-09-19T07:07:08;15.30;99.90
52016;DHT22;38032;53.326;6.472;2023-09-19T07:09:35;15.40;99.90
52016;DHT22;38032;53.326;6.472;2023-09-19T07:12:00;15.40;99.90
52016;DHT22;38032;53.326;6.472;2023-09-19T07:14:26;15.50;99.90
52016;DHT22;38032;53.326;6.472;2023-09-19T07:16:53;15.50;99.90
52016;DHT22;38032;53.326;6.472;2023-09-19T07:19:20;15.60;99.90
52016;DHT22;38032;53.326;6.472;2023-09-19T07:21:46;15.70;99.90
52016;DHT22;38032;53.326;6.472;2023-09-19T07:24:13;15.70;99.90
52016;DHT22;38032;53.326;6.472;2023-09-19T07:26:39;15.80;99.90
52016;DHT22;38032;53.326;6.472;2023-09-19T07:29:05;15.80;99.90
52016;DHT22;38032;53.326;6.472;2023-09-19T07:31:32;15.90;99.90
52016;DHT22;38032;53.326;6.472;2023-09-19T07:33:59;15.90;99.90
52016;DHT22;38032;53.326;6.472;2023-09-19T07:36:25;16.00;99.90
52016;DHT22;38032;53.326;6.472;2023-09-19T07:38:51;16.00;99.90
52016;DHT22;38032;53.326;6.472;2023-09-19T07:41:16;16.10;99.90
52016;DHT22;38032;53.326;6.472;2023-09-19T07:43:42;16.20;99.90
52016;DHT22;38032;53.326;6.472;2023-09-19T07:46:09;16.20;99.90
52016;DHT22;38032;53.326;6.472;2023-09-19T07:48:36;16.30;99.90
52016;DHT22;38032;53.326;6.472;2023-09-19T07:51:04;16.40;99.90
52016;DHT22;38032;53.326;6.472;2023-09-19T07:53:30;16.40;99.90
52016;DHT22;38032;53.326;6.472;2023-09-19T07:56:09;16.50;99.90
52016;DHT22;38032;53.326;6.472;2023-09-19T07:58:38;16.50;99.90
52016;DHT22;38032;53.326;6.472;2023-09-19T08:01:07;16.60;99.90
52016;DHT22;38032;53.326;6.472;2023-09-19T08:03:34;16.60;99.90
52016;DHT22;38032;53.326;6.472;2023-09-19T08:06:00;16.60;99.90
52016;DHT22;38032;53.326;6.472;2023-09-19T08:08:27;16.70;99.90
52016;DHT22;38032;53.326;6.472;2023-09-19T08:10:54;16.70;99.90
52016;DHT22;38032;53.326;6.472;2023-09-19T08:13:22;16.80;99.90
52016;DHT22;38032;53.326;6.472;2023-09-19T08:15:49;16.90;99.90
52016;DHT22;38032;53.326;6.472;2023-09-19T08:18:17;16.90;99.90
52016;DHT22;38032;53.326;6.472;2023-09-19T08:20:43;17.00;99.90
52016;DHT22;38032;53.326;6.472;2023-09-19T08:23:11;17.00;99.90
52016;DHT22;38032;53.326;6.472;2023-09-19T08:25:37;17.10;99.90
52016;DHT22;38032;53.326;6.472;2023-09-19T08:28:05;17.00;99.90
52016;DHT22;38032;53.326;6.472;2023-09-19T08:30:34;17.00;99.90
52016;DHT22;38032;53.326;6.472;2023-09-19T08:33:01;17.00;99.90
52016;DHT22;38032;53.326;6.472;2023-09-19T08:35:27;16.90;99.90
52016;DHT22;38032;53.326;6.472;2023-09-19T08:37:53;16.90;99.90
52016;DHT22;38032;53.326;6.472;2023-09-19T08:40:21;17.00;99.90
52016;DHT22;38032;53.326;6.472;2023-09-19T08:42:54;17.00;99.90
52016;DHT22;38032;53.326;6.472;2023-09-19T08:45:22;16.90;99.90
52016;DHT22;38032;53.326;6.472;2023-09-19T08:50:36;17.00;99.90
52016;DHT22;38032;53.326;6.472;2023-09-19T08:53:11;17.00;99.90
52016;DHT22;38032;53.326;6.472;2023-09-19T08:55:43;17.10;99.90
52016;DHT22;38032;53.326;6.472;2023-09-19T08:58:16;17.10;99.90
52016;DHT22;38032;53.326;6.472;2023-09-19T09:00:47;17.10;99.90
52016;DHT22;38032;53.326;6.472;2023-09-19T09:03:16;17.20;99.90
52016;DHT22;38032;53.326;6.472;2023-09-19T09:05:45;17.20;99.90
52016;DHT22;38032;53.326;6.472;2023-09-19T09:08:12;17.40;99.90
52016;DHT22;38032;53.326;6.472;2023-09-19T09:10:38;17.50;99.90
52016;DHT22;38032;53.326;6.472;2023-09-19T09:13:06;17.60;99.90
52016;DHT22;38032;53.326;6.472;2023-09-19T09:15:35;17.90;99.90
52016;DHT22;38032;53.326;6.472;2023-09-19T09:18:02;18.20;99.90
52016;DHT22;38032;53.326;6.472;2023-09-19T09:20:30;18.60;99.90
52016;DHT22;38032;53.326;6.472;2023-09-19T09:22:57;19.80;99.90
52016;DHT22;38032;53.326;6.472;2023-09-19T09:25:49;19.60;99.90
52016;DHT22;38032;53.326;6.472;2023-09-19T09:28:23;20.10;99.90
52016;DHT22;38032;53.326;6.472;2023-09-19T09:30:50;20.60;99.90
52016;DHT22;38032;53.326;6.472;2023-09-19T09:38:24;21.90;99.90
52016;DHT22;38032;53.326;6.472;2023-09-19T09:41:00;22.30;99.90
52016;DHT22;38032;53.326;6.472;2023-09-19T09:43:34;22.30;99.90
52016;DHT22;38032;53.326;6.472;2023-09-19T09:46:09;22.40;99.90
52016;DHT22;38032;53.326;6.472;2023-09-19T09:48:56;22.40;99.90
52016;DHT22;38032;53.326;6.472;2023-09-19T09:51:42;22.10;99.90
52016;DHT22;38032;53.326;6.472;2023-09-19T09:54:12;21.70;99.90
52016;DHT22;38032;53.326;6.472;2023-09-19T09:56:54;21.50;99.90
52016;DHT22;38032;53.326;6.472;2023-09-19T09:59:21;21.40;99.90
52016;DHT22;38032;53.326;6.472;2023-09-19T10:01:50;21.50;99.90
52016;DHT22;38032;53.326;6.472;2023-09-19T10:04:28;21.40;99.90
52016;DHT22;38032;53.326;6.472;2023-09-19T10:07:02;21.40;99.90
52016;DHT22;38032;53.326;6.472;2023-09-19T10:09:46;21.40;99.90
52016;DHT22;38032;53.326;6.472;2023-09-19T10:12:13;21.40;99.90
52016;DHT22;38032;53.326;6.472;2023-09-19T10:14:42;21.40;99.90
52016;DHT22;38032;53.326;6.472;2023-09-19T10:17:12;21.30;99.90
52016;DHT22;38032;53.326;6.472;2023-09-19T10:19:46;21.10;99.90
52016;DHT22;38032;53.326;6.472;2023-09-19T10:22:14;20.90;99.90
52016;DHT22;38032;53.326;6.472;2023-09-19T10:24:43;20.80;99.90
52016;DHT22;38032;53.326;6.472;2023-09-19T10:27:12;21.00;99.90
52016;DHT22;38032;53.326;6.472;2023-09-19T10:29:39;21.10;99.90
52016;DHT22;38032;53.326;6.472;2023-09-19T10:32:07;21.30;99.90
52016;DHT22;38032;53.326;6.472;2023-09-19T10:34:36;21.30;99.90
52016;DHT22;38032;53.326;6.472;2023-09-19T10:37:02;21.20;99.90
52016;DHT22;38032;53.326;6.472;2023-09-19T10:39:32;21.10;99.90
52016;DHT22;38032;53.326;6.472;2023-09-19T10:42:02;21.20;99.90
52016;DHT22;38032;53.326;6.472;2023-09-19T10:44:32;21.40;99.90
52016;DHT22;38032;53.326;6.472;2023-09-19T10:46:58;21.70;99.90
52016;DHT22;38032;53.326;6.472;2023-09-19T10:49:25;21.70;99.90
52016;DHT22;38032;53.326;6.472;2023-09-19T10:51:55;21.60;99.90
52016;DHT22;38032;53.326;6.472;2023-09-19T10:54:27;21.40;99.90
52016;DHT22;38032;53.326;6.472;2023-09-19T10:56:54;21.30;99.90
52016;DHT22;38032;53.326;6.472;2023-09-19T10:59:24;21.20;99.90
52016;DHT22;38032;53.326;6.472;2023-09-19T11:01:54;21.20;99.90
52016;DHT22;38032;53.326;6.472;2023-09-19T11:04:30;21.40;99.90
52016;DHT22;38032;53.326;6.472;2023-09-19T11:07:03;21.50;99.90
52016;DHT22;38032;53.326;6.472;2023-09-19T11:09:50;21.60;99.90
52016;DHT22;38032;53.326;6.472;2023-09-19T11:14:59;21.50;99.90
52016;DHT22;38032;53.326;6.472;2023-09-19T11:17:33;21.20;99.90
52016;DHT22;38032;53.326;6.472;2023-09-19T11:25:41;20.40;99.90
52016;DHT22;38032;53.326;6.472;2023-09-19T11:30:49;20.00;99.90
52016;DHT22;38032;53.326;6.472;2023-09-19T11:35:59;19.80;99.90
52016;DHT22;38032;53.326;6.472;2023-09-19T11:43:47;19.60;99.90
52016;DHT22;38032;53.326;6.472;2023-09-19T11:46:13;19.50;99.90
52016;DHT22;38032;53.326;6.472;2023-09-19T11:48:43;19.40;99.90
52016;DHT22;38032;53.326;6.472;2023-09-19T11:51:11;19.40;99.90
52016;DHT22;38032;53.326;6.472;2023-09-19T11:53:46;19.30;99.90
52016;DHT22;38032;53.326;6.472;2023-09-19T11:56:16;19.40;99.90
52016;DHT22;38032;53.326;6.472;2023-09-19T11:58:44;19.40;99.90
52016;DHT22;38032;53.326;6.472;2023-09-19T12:01:13;19.40;99.90
52016;DHT22;38032;53.326;6.472;2023-09-19T12:03:43;19.40;99.90
52016;DHT22;38032;53.326;6.472;2023-09-19T12:06:14;19.30;99.90
52016;DHT22;38032;53.326;6.472;2023-09-19T12:08:43;19.20;99.90
52016;DHT22;38032;53.326;6.472;2023-09-19T12:11:13;19.20;99.90
52016;DHT22;38032;53.326;6.472;2023-09-19T12:13:43;19.10;99.90
52016;DHT22;38032;53.326;6.472;2023-09-19T12:16:17;19.10;99.90
52016;DHT22;38032;53.326;6.472;2023-09-19T12:18:44;19.10;99.90
52016;DHT22;38032;53.326;6.472;2023-09-19T12:21:26;19.00;99.90
52016;DHT22;38032;53.326;6.472;2023-09-19T12:23:59;19.00;99.90
52016;DHT22;38032;53.326;6.472;2023-09-19T12:26:27;19.00;99.90
52016;DHT22;38032;53.326;6.472;2023-09-19T12:28:55;18.90;99.90
52016;DHT22;38032;53.326;6.472;2023-09-19T12:31:22;18.90;99.90
52016;DHT22;38032;53.326;6.472;2023-09-19T12:33:53;18.90;99.90
52016;DHT22;38032;53.326;6.472;2023-09-19T12:36:22;18.80;99.90
52016;DHT22;38032;53.326;6.472;2023-09-19T12:38:56;18.60;99.90
52016;DHT22;38032;53.326;6.472;2023-09-19T12:41:26;18.50;99.90
52016;DHT22;38032;53.326;6.472;2023-09-19T12:43:53;18.60;99.90
52016;DHT22;38032;53.326;6.472;2023-09-19T12:46:21;18.70;99.90
52016;DHT22;38032;53.326;6.472;2023-09-19T12:51:44;18.80;99.90
52016;DHT22;38032;53.326;6.472;2023-09-19T12:54:10;18.90;99.90
52016;DHT22;38032;53.326;6.472;2023-09-19T12:56:41;19.00;99.90
52016;DHT22;38032;53.326;6.472;2023-09-19T12:59:12;19.10;99.90
52016;DHT22;38032;53.326;6.472;2023-09-19T13:01:40;19.10;99.90
52016;DHT22;38032;53.326;6.472;2023-09-19T13:04:17;19.00;99.90
52016;DHT22;38032;53.326;6.472;2023-09-19T13:06:46;19.00;99.90
52016;DHT22;38032;53.326;6.472;2023-09-19T13:09:15;18.90;99.90
52016;DHT22;38032;53.326;6.472;2023-09-19T13:11:42;18.80;99.90
52016;DHT22;38032;53.326;6.472;2023-09-19T13:14:21;18.80;99.90
52016;DHT22;38032;53.326;6.472;2023-09-19T13:16:59;18.80;99.90
52016;DHT22;38032;53.326;6.472;2023-09-19T13:19:40;18.70;99.90
52016;DHT22;38032;53.326;6.472;2023-09-19T13:22:44;18.70;99.90
52016;DHT22;38032;53.326;6.472;2023-09-19T13:25:16;18.70;99.90
52016;DHT22;38032;53.326;6.472;2023-09-19T13:27:45;18.60;99.90
52016;DHT22;38032;53.326;6.472;2023-09-19T13:30:13;18.60;99.90
52016;DHT22;38032;53.326;6.472;2023-09-19T13:32:39;18.50;99.90
52016;DHT22;38032;53.326;6.472;2023-09-19T13:35:07;18.50;99.90
52016;DHT22;38032;53.326;6.472;2023-09-19T13:37:40;18.50;99.90
52016;DHT22;38032;53.326;6.472;2023-09-19T13:40:09;18.40;99.90
52016;DHT22;38032;53.326;6.472;2023-09-19T13:42:36;18.40;99.90
52016;DHT22;38032;53.326;6.472;2023-09-19T13:45:04;18.40;99.90
52016;DHT22;38032;53.326;6.472;2023-09-19T13:47:31;18.40;99.90
52016;DHT22;38032;53.326;6.472;2023-09-19T13:49:59;18.30;99.90
52016;DHT22;38032;53.326;6.472;2023-09-19T13:52:25;18.30;99.90
52016;DHT22;38032;53.326;6.472;2023-09-19T13:54:54;18.30;99.90
52016;DHT22;38032;53.326;6.472;2023-09-19T13:57:24;18.30;99.90
52016;DHT22;38032;53.326;6.472;2023-09-19T13:59:52;18.40;99.90
52016;DHT22;38032;53.326;6.472;2023-09-19T14:02:21;18.40;99.90
52016;DHT22;38032;53.326;6.472;2023-09-19T14:04:49;18.50;99.90
52016;DHT22;38032;53.326;6.472;2023-09-19T14:07:16;18.60;99.90
52016;DHT22;38032;53.326;6.472;2023-09-19T14:09:44;18.60;99.90
52016;DHT22;38032;53.326;6.472;2023-09-19T14:12:11;18.60;99.90
52016;DHT22;38032;53.326;6.472;2023-09-19T14:14:37;18.70;99.90
52016;DHT22;38032;53.326;6.472;2023-09-19T14:17:04;18.90;99.90
52016;DHT22;38032;53.326;6.472;2023-09-19T14:19:30;18.90;99.90
52016;DHT22;38032;53.326;6.472;2023-09-19T14:21:56;19.00;99.90
52016;DHT22;38032;53.326;6.472;2023-09-19T14:24:22;19.10;99.90
52016;DHT22;38032;53.326;6.472;2023-09-19T14:26:49;19.00;99.90
52016;DHT22;38032;53.326;6.472;2023-09-19T14:29:16;19.00;99.90
52016;DHT22;38032;53.326;6.472;2023-09-19T14:31:42;19.00;99.90
52016;DHT22;38032;53.326;6.472;2023-09-19T14:34:09;18.90;99.90
52016;DHT22;38032;53.326;6.472;2023-09-19T14:36:36;18.90;99.90
52016;DHT22;38032;53.326;6.472;2023-09-19T14:39:02;18.80;99.90
52016;DHT22;38032;53.326;6.472;2023-09-19T14:41:28;18.80;99.90
52016;DHT22;38032;53.326;6.472;2023-09-19T14:43:56;18.70;99.90
52016;DHT22;38032;53.326;6.472;2023-09-19T14:46:22;18.70;99.90
52016;DHT22;38032;53.326;6.472;2023-09-19T14:48:51;18.60;99.90
52016;DHT22;38032;53.326;6.472;2023-09-19T14:51:17;18.60;99.90
52016;DHT22;38032;53.326;6.472;2023-09-19T14:53:45;18.50;99.90
52016;DHT22;38032;53.326;6.472;2023-09-19T14:56:11;18.50;99.90
52016;DHT22;38032;53.326;6.472;2023-09-19T14:58:38;18.40;99.90
52016;DHT22;38032;53.326;6.472;2023-09-19T15:01:06;18.40;99.90
52016;DHT22;38032;53.326;6.472;2023-09-19T15:03:33;18.30;99.90
52016;DHT22;38032;53.326;6.472;2023-09-19T15:06:01;18.30;99.90
52016;DHT22;38032;53.326;6.472;2023-09-19T15:08:27;18.20;99.90
52016;DHT22;38032;53.326;6.472;2023-09-19T15:10:53;18.20;99.90
52016;DHT22;38032;53.326;6.472;2023-09-19T15:13:19;18.20;99.90
52016;DHT22;38032;53.326;6.472;2023-09-19T15:15:46;18.10;99.90
52016;DHT22;38032;53.326;6.472;2023-09-19T15:18:14;18.10;99.90
52016;DHT22;38032;53.326;6.472;2023-09-19T15:20:44;18.00;99.90
52016;DHT22;38032;53.326;6.472;2023-09-19T15:23:10;18.00;99.90
52016;DHT22;38032;53.326;6.472;2023-09-19T15:25:38;17.90;99.90
52016;DHT22;38032;53.326;6.472;2023-09-19T15:28:06;17.90;99.90
52016;DHT22;38032;53.326;6.472;2023-09-19T15:30:37;17.90;99.90
52016;DHT22;38032;53.326;6.472;2023-09-19T15:33:04;17.90;99.90
52016;DHT22;38032;53.326;6.472;2023-09-19T15:35:30;17.90;99.90
52016;DHT22;38032;53.326;6.472;2023-09-19T15:37:56;17.80;99.90
52016;DHT22;38032;53.326;6.472;2023-09-19T15:40:22;17.80;99.90
52016;DHT22;38032;53.326;6.472;2023-09-19T15:42:55;17.80;99.90
52016;DHT22;38032;53.326;6.472;2023-09-19T15:45:23;17.70;99.90
52016;DHT22;38032;53.326;6.472;2023-09-19T15:47:51;17.70;99.90
52016;DHT22;38032;53.326;6.472;2023-09-19T15:50:17;17.70;99.90
52016;DHT22;38032;53.326;6.472;2023-09-19T15:52:44;17.70;99.90
52016;DHT22;38032;53.326;6.472;2023-09-19T15:55:10;17.70;99.90
52016;DHT22;38032;53.326;6.472;2023-09-19T15:57:37;17.60;99.90
52016;DHT22;38032;53.326;6.472;2023-09-19T16:00:04;17.60;99.90
52016;DHT22;38032;53.326;6.472;2023-09-19T16:02:38;17.60;99.90
52016;DHT22;38032;53.326;6.472;2023-09-19T16:05:04;17.60;99.90
52016;DHT22;38032;53.326;6.472;2023-09-19T16:07:32;17.50;99.90
52016;DHT22;38032;53.326;6.472;2023-09-19T16:10:00;17.50;99.90
52016;DHT22;38032;53.326;6.472;2023-09-19T16:12:26;17.50;99.90
52016;DHT22;38032;53.326;6.472;2023-09-19T16:14:52;17.50;99.90
52016;DHT22;38032;53.326;6.472;2023-09-19T16:17:18;17.50;99.90
52016;DHT22;38032;53.326;6.472;2023-09-19T16:19:44;17.50;99.90
52016;DHT22;38032;53.326;6.472;2023-09-19T16:22:10;17.50;99.90
52016;DHT22;38032;53.326;6.472;2023-09-19T16:24:36;17.50;99.90